createdAt,value
2023-02-26T00:01:51.560Z,96218.10
2023-02-26T00:04:20.742Z,96225.09
2023-02-26T00:06:56.905Z,96228.97
2023-02-26T00:09:27.927Z,96217.86
2023-02-26T00:11:57.227Z,96228.48
2023-02-26T00:14:31.852Z,96225.63
2023-02-26T00:17:35.367Z,96239.33
2023-02-26T00:20:12.148Z,96247.41
2023-02-26T00:22:42.564Z,96259.70
2023-02-26T00:25:11.337Z,96267.73
2023-02-26T00:27:40.847Z,96274.02
2023-02-26T00:30:10.481Z,96274.11
2023-02-26T00:32:40.256Z,96276.98
2023-02-26T00:35:11.797Z,96272.09
2023-02-26T00:37:56.280Z,96274.74
2023-02-26T00:40:46.086Z,96276.63
2023-02-26T00:43:24.344Z,96277.23
2023-02-26T00:46:25.994Z,96267.48
2023-02-26T00:49:11.045Z,96262.49
2023-02-26T00:51:50.839Z,96264.31
2023-02-26T00:54:26.496Z,96258.83
2023-02-26T00:56:56.343Z,96246.20
2023-02-26T00:59:25.516Z,96252.48
2023-02-26T01:01:54.395Z,96246.27
2023-02-26T01:04:24.424Z,96250.85
2023-02-26T01:06:55.720Z,96264.69
2023-02-26T01:09:28.757Z,96275.31
2023-02-26T01:12:01.771Z,96282.33
2023-02-26T01:14:32.596Z,96278.52
2023-02-26T01:17:40.081Z,96276.00
2023-02-26T01:20:10.493Z,96271.70
2023-02-26T01:23:02.141Z,96276.93
2023-02-26T01:25:39.806Z,96277.71
2023-02-26T01:28:09.203Z,96282.48
2023-02-26T01:30:39.647Z,96282.70
2023-02-26T01:33:30.744Z,96272.63
2023-02-26T01:36:23.024Z,96275.38
2023-02-26T01:39:10.699Z,96282.92
2023-02-26T01:41:58.958Z,96282.54
2023-02-26T01:44:32.552Z,96289.30
2023-02-26T01:47:01.865Z,96298.89
2023-02-26T01:49:32.085Z,96307.95
2023-02-26T01:52:02.710Z,96316.59
2023-02-26T01:54:34.091Z,96323.55
2023-02-26T01:57:08.770Z,96310.89
2023-02-26T01:59:44.006Z,96309.70
2023-02-26T02:02:13.785Z,96302.44
2023-02-26T02:04:42.727Z,96297.42
2023-02-26T02:07:11.716Z,96301.98
2023-02-26T02:09:40.415Z,96294.73
2023-02-26T02:12:31.162Z,96289.77
2023-02-26T02:15:03.285Z,96292.05
2023-02-26T02:17:58.078Z,96293.58
2023-02-26T02:20:45.692Z,96292.12
2023-02-26T02:23:23.107Z,96307.17
2023-02-26T02:26:49.927Z,96325.77
2023-02-26T02:29:42.078Z,96324.06
2023-02-26T02:32:12.558Z,96343.69
2023-02-26T02:34:58.823Z,96358.35
2023-02-26T02:37:48.796Z,96367.75
2023-02-26T02:40:30.217Z,96378.27
2023-02-26T02:43:00.173Z,96390.77
2023-02-26T02:45:48.289Z,96404.45
2023-02-26T02:48:29.767Z,96416.14
2023-02-26T02:51:19.188Z,96421.77
2023-02-26T02:53:55.022Z,96417.02
2023-02-26T02:56:26.309Z,96422.31
2023-02-26T02:59:23.436Z,96429.63
2023-02-26T03:02:21.553Z,96427.14
2023-02-26T03:04:50.282Z,96424.39
2023-02-26T03:07:19.084Z,96442.42
2023-02-26T03:09:53.608Z,96437.09
2023-02-26T03:12:22.587Z,96444.36
2023-02-26T03:14:55.791Z,96454.49
2023-02-26T03:17:52.216Z,96454.68
2023-02-26T03:20:23.666Z,96444.71
2023-02-26T03:22:56.168Z,96444.70
2023-02-26T03:25:42.853Z,96439.60
2023-02-26T03:28:27.750Z,96431.20
2023-02-26T03:31:07.294Z,96439.08
2023-02-26T03:33:50.992Z,96448.81
2023-02-26T03:36:30.024Z,96452.35
2023-02-26T03:39:12.626Z,96464.19
2023-02-26T03:42:10.611Z,96467.44
2023-02-26T03:44:54.968Z,96464.55
2023-02-26T03:47:25.694Z,96477.70
2023-02-26T03:49:59.576Z,96487.63
2023-02-26T03:52:30.142Z,96492.26
2023-02-26T03:55:28.003Z,96498.61
2023-02-26T03:58:09.700Z,96512.19
2023-02-26T04:01:18.967Z,96525.46
2023-02-26T04:03:54.733Z,96550.61
2023-02-26T04:06:25.113Z,96561.70
2023-02-26T04:08:55.324Z,96570.39
2023-02-26T04:11:26.063Z,96586.54
2023-02-26T04:13:55.058Z,96594.46
2023-02-26T04:16:25.093Z,96606.59
2023-02-26T04:18:56.108Z,96606.30
2023-02-26T04:21:25.067Z,96612.81
2023-02-26T04:23:54.336Z,96612.82
2023-02-26T04:26:23.702Z,96612.52
2023-02-26T04:28:53.200Z,96612.67
2023-02-26T04:31:22.419Z,96631.96
2023-02-26T04:33:51.800Z,96625.94
2023-02-26T04:36:20.394Z,96622.68
2023-02-26T04:38:49.997Z,96635.65
2023-02-26T04:41:18.774Z,96640.71
2023-02-26T04:43:49.098Z,96634.64
2023-02-26T04:46:24.698Z,96627.07
2023-02-26T04:48:54.010Z,96631.15
2023-02-26T04:51:26.463Z,96642.66
2023-02-26T04:53:55.721Z,96646.72
2023-02-26T04:56:25.967Z,96648.05
2023-02-26T04:58:56.160Z,96649.39
2023-02-26T05:01:28.768Z,96652.69
2023-02-26T05:03:58.036Z,96667.73
2023-02-26T05:06:27.304Z,96676.84
2023-02-26T05:08:57.154Z,96692.48
2023-02-26T05:11:26.129Z,96701.98
2023-02-26T05:13:55.757Z,96714.32
2023-02-26T05:16:24.833Z,96724.20
2023-02-26T05:18:54.965Z,96740.05
2023-02-26T05:21:26.135Z,96740.88
2023-02-26T05:23:55.515Z,96756.33
2023-02-26T05:26:24.775Z,96774.55
2023-02-26T05:28:56.989Z,96795.48
2023-02-26T05:31:27.289Z,96804.55
2023-02-26T05:33:56.714Z,96811.23
2023-02-26T05:36:25.826Z,96816.45
2023-02-26T05:38:54.803Z,96827.39
2023-02-26T05:41:23.794Z,96839.13
2023-02-26T05:43:52.541Z,96847.10
2023-02-26T05:46:21.715Z,96855.21
2023-02-26T05:48:52.115Z,96863.38
2023-02-26T05:51:21.704Z,96867.96
2023-02-26T05:53:50.401Z,96877.51
2023-02-26T05:56:19.282Z,96890.31
2023-02-26T05:58:48.448Z,96902.26
2023-02-26T06:01:17.872Z,96917.85
2023-02-26T06:03:46.766Z,96927.81
2023-02-26T06:06:18.854Z,96935.61
2023-02-26T06:08:48.333Z,96939.39
2023-02-26T06:11:20.712Z,96945.95
2023-02-26T06:13:49.887Z,96947.02
2023-02-26T06:16:20.805Z,96949.84
2023-02-26T06:18:51.570Z,96952.04
2023-02-26T06:21:20.776Z,96950.80
2023-02-26T06:23:49.614Z,96946.11
2023-02-26T06:26:18.547Z,96943.94
2023-02-26T06:28:48.878Z,96942.14
2023-02-26T06:31:18.384Z,96943.89
2023-02-26T06:33:48.098Z,96946.61
2023-02-26T06:36:17.830Z,96952.63
2023-02-26T06:38:47.219Z,96950.69
2023-02-26T06:41:16.094Z,96953.13
2023-02-26T06:43:44.991Z,96965.81
2023-02-26T06:46:14.152Z,96983.65
2023-02-26T06:48:45.225Z,97007.27
2023-02-26T06:51:14.012Z,97026.98
2023-02-26T06:53:42.902Z,97051.16
2023-02-26T06:56:11.781Z,97066.79
2023-02-26T06:58:40.691Z,97084.78
2023-02-26T07:01:10.844Z,97108.25
2023-02-26T07:03:39.630Z,97121.56
2023-02-26T07:06:38.459Z,97136.45
2023-02-26T07:08:59.848Z,97146.08
2023-02-26T07:11:29.712Z,97137.30
2023-02-26T07:13:58.494Z,97145.05
2023-02-26T07:16:27.958Z,97150.06
2023-02-26T07:18:57.353Z,97149.86
2023-02-26T07:21:26.298Z,97152.43
2023-02-26T07:24:01.743Z,97158.13
2023-02-26T07:26:30.853Z,97162.40
2023-02-26T07:29:00.034Z,97169.29
2023-02-26T07:31:29.362Z,97171.63
2023-02-26T07:33:58.221Z,97176.39
2023-02-26T07:36:27.424Z,97185.28
2023-02-26T07:38:56.722Z,97187.21
2023-02-26T07:41:26.731Z,97186.60
2023-02-26T07:43:56.029Z,97195.34
2023-02-26T07:46:25.057Z,97209.49
2023-02-26T07:48:54.216Z,97219.33
2023-02-26T07:51:24.446Z,97213.69
2023-02-26T07:53:57.629Z,97205.33
2023-02-26T07:56:30.617Z,97214.73
2023-02-26T07:58:59.672Z,97223.79
2023-02-26T08:01:28.961Z,97231.38
2023-02-26T08:03:57.830Z,97235.05
2023-02-26T08:06:28.034Z,97244.81
2023-02-26T08:09:01.926Z,97241.74
2023-02-26T08:11:33.103Z,97246.48
2023-02-26T08:14:02.065Z,97241.76
2023-02-26T08:16:31.179Z,97244.26
2023-02-26T08:19:00.070Z,97238.84
2023-02-26T08:21:29.352Z,97232.73
2023-02-26T08:23:58.449Z,97233.08
2023-02-26T08:26:27.496Z,97223.77
2023-02-26T08:28:56.665Z,97223.04
2023-02-26T08:31:27.424Z,97231.98
2023-02-26T08:33:56.151Z,97244.05
2023-02-26T08:36:25.587Z,97263.11
2023-02-26T08:38:55.270Z,97270.98
2023-02-26T08:41:24.759Z,97279.01
2023-02-26T08:43:55.193Z,97284.98
2023-02-26T08:46:24.391Z,97296.27
2023-02-26T08:48:54.000Z,97299.55
2023-02-26T08:51:23.382Z,97303.89
2023-02-26T08:53:52.606Z,97312.32
2023-02-26T08:56:21.380Z,97313.66
2023-02-26T08:58:50.490Z,97317.30
2023-02-26T09:01:19.174Z,97323.01
2023-02-26T09:03:48.271Z,97325.11
2023-02-26T09:06:16.954Z,97327.84
2023-02-26T09:08:48.000Z,97328.98
2023-02-26T09:11:18.015Z,97328.85
2023-02-26T09:13:46.511Z,97324.44
2023-02-26T09:16:14.944Z,97323.46
2023-02-26T09:18:47.138Z,97320.72
2023-02-26T09:21:15.677Z,97321.84
2023-02-26T09:23:45.545Z,97312.23
2023-02-26T09:26:14.522Z,97308.52
2023-02-26T09:28:43.173Z,97304.05
2023-02-26T09:31:12.502Z,97302.72
2023-02-26T09:33:41.809Z,97300.95
2023-02-26T09:36:10.098Z,97303.92
2023-02-26T09:38:39.000Z,97303.80
2023-02-26T09:41:29.080Z,97287.84
2023-02-26T09:43:57.963Z,97293.62
2023-02-26T09:46:32.907Z,97296.79
2023-02-26T09:49:29.172Z,97305.04
2023-02-26T09:52:31.809Z,97308.63
2023-02-26T09:55:10.826Z,97308.41
2023-02-26T09:57:45.348Z,97311.71
2023-02-26T10:00:18.144Z,97322.16
2023-02-26T10:03:10.171Z,97323.34
2023-02-26T10:05:57.590Z,97329.92
2023-02-26T10:08:33.650Z,97331.75
2023-02-26T10:11:15.161Z,97330.20
2023-02-26T10:13:57.197Z,97331.08
2023-02-26T10:16:28.060Z,97342.09
2023-02-26T10:19:18.814Z,97353.24
2023-02-26T10:21:53.093Z,97361.68
2023-02-26T10:24:39.543Z,97367.36
2023-02-26T10:27:41.162Z,97374.27
2023-02-26T10:30:29.039Z,97384.16
2023-02-26T10:33:28.054Z,97386.48
2023-02-26T10:36:01.275Z,97383.98
2023-02-26T10:38:31.398Z,97392.02
2023-02-26T10:41:08.525Z,97391.94
2023-02-26T10:43:42.978Z,97396.97
2023-02-26T10:46:45.852Z,97406.68
2023-02-26T10:49:33.610Z,97415.42
2023-02-26T10:52:31.889Z,97410.45
2023-02-26T10:55:14.417Z,97411.38
2023-02-26T10:57:48.101Z,97406.58
2023-02-26T11:00:19.286Z,97413.70
2023-02-26T11:02:52.215Z,97412.78
2023-02-26T11:05:30.762Z,97413.33
2023-02-26T11:08:06.125Z,97405.34
2023-02-26T11:10:48.907Z,97402.56
2023-02-26T11:13:18.312Z,97403.46
2023-02-26T11:15:49.729Z,97405.10
2023-02-26T11:18:42.635Z,97404.71
2023-02-26T11:21:17.779Z,97409.98
2023-02-26T11:23:47.671Z,97415.42
2023-02-26T11:26:17.999Z,97421.52
2023-02-26T11:28:48.570Z,97421.09
2023-02-26T11:31:21.339Z,97418.92
2023-02-26T11:33:52.136Z,97424.02
2023-02-26T11:36:22.263Z,97426.98
2023-02-26T11:39:03.128Z,97432.88
2023-02-26T11:41:33.141Z,97429.83
2023-02-26T11:44:05.530Z,97433.44
2023-02-26T11:46:51.195Z,97430.02
2023-02-26T11:49:23.404Z,97430.88
2023-02-26T11:52:06.179Z,97436.22
2023-02-26T11:54:36.611Z,97441.79
2023-02-26T11:57:08.489Z,97449.20
2023-02-26T11:59:38.602Z,97458.97
2023-02-26T12:02:13.218Z,97461.71
2023-02-26T12:04:45.241Z,97473.34
2023-02-26T12:07:14.801Z,97476.73
2023-02-26T12:09:44.072Z,97480.43
2023-02-26T12:12:21.949Z,97475.00
2023-02-26T12:15:03.705Z,97473.20
2023-02-26T12:17:51.410Z,97468.23
2023-02-26T12:20:28.986Z,97463.46
2023-02-26T12:22:59.121Z,97453.38
2023-02-26T12:25:32.830Z,97447.54
2023-02-26T12:28:26.292Z,97448.48
2023-02-26T12:30:55.400Z,97451.61
2023-02-26T12:33:38.918Z,97458.34
2023-02-26T12:36:23.569Z,97464.20
2023-02-26T12:39:26.051Z,97460.41
2023-02-26T12:42:19.924Z,97456.88
2023-02-26T12:45:20.968Z,97452.28
2023-02-26T12:48:10.544Z,97453.88
2023-02-26T12:50:56.026Z,97453.20
2023-02-26T12:53:43.040Z,97451.04
2023-02-26T12:56:49.646Z,97459.48
2023-02-26T12:59:42.082Z,97463.89
2023-02-26T13:02:34.094Z,97470.18
2023-02-26T13:05:15.382Z,97473.34
2023-02-26T13:07:50.107Z,97479.98
2023-02-26T13:10:28.523Z,97487.95
2023-02-26T13:13:22.489Z,97494.77
2023-02-26T13:16:16.406Z,97501.80
2023-02-26T13:18:54.677Z,97508.48
2023-02-26T13:21:26.998Z,97528.33
2023-02-26T13:24:01.159Z,97538.00
2023-02-26T13:26:31.689Z,97549.98
2023-02-26T13:29:18.884Z,97551.23
2023-02-26T13:31:56.023Z,97548.73
2023-02-26T13:34:48.653Z,97541.28
2023-02-26T13:37:23.342Z,97550.42
2023-02-26T13:39:57.382Z,97548.88
2023-02-26T13:42:59.040Z,97556.45
2023-02-26T13:45:51.135Z,97553.77
2023-02-26T13:48:46.169Z,97559.00
2023-02-26T13:51:26.367Z,97558.54
2023-02-26T13:54:00.107Z,97564.07
2023-02-26T13:56:29.020Z,97560.49
2023-02-26T13:59:13.536Z,97567.45
2023-02-26T14:01:46.822Z,97566.21
2023-02-26T14:04:25.441Z,97584.10
2023-02-26T14:06:58.434Z,97578.74
2023-02-26T14:09:36.068Z,97595.19
2023-02-26T14:12:16.123Z,97605.42
2023-02-26T14:15:12.046Z,97619.85
2023-02-26T14:17:51.581Z,97615.89
2023-02-26T14:20:28.470Z,97601.16
2023-02-26T14:23:12.521Z,97602.97
2023-02-26T14:25:47.942Z,97609.14
2023-02-26T14:28:33.321Z,97608.98
2023-02-26T14:31:17.011Z,97600.70
2023-02-26T14:34:04.814Z,97594.47
2023-02-26T14:36:44.741Z,97579.08
2023-02-26T14:39:36.981Z,97577.48
2023-02-26T14:42:18.778Z,97583.72
2023-02-26T14:44:49.634Z,97598.72
2023-02-26T14:47:18.707Z,97604.16
2023-02-26T14:49:49.807Z,97621.27
2023-02-26T14:52:32.771Z,97631.95
2023-02-26T14:55:24.099Z,97626.75
2023-02-26T14:58:09.560Z,97630.13
2023-02-26T15:00:51.158Z,97636.89
2023-02-26T15:03:40.325Z,97651.23
2023-02-26T15:06:31.120Z,97647.86
2023-02-26T15:09:10.350Z,97657.42
2023-02-26T15:11:58.771Z,97657.41
2023-02-26T15:14:36.109Z,97671.38
2023-02-26T15:17:15.653Z,97677.33
2023-02-26T15:19:59.994Z,97692.94
2023-02-26T15:22:37.481Z,97696.65
2023-02-26T15:25:12.392Z,97694.15
2023-02-26T15:27:41.295Z,97691.02
2023-02-26T15:30:14.952Z,97694.58
2023-02-26T15:32:44.317Z,97698.17
2023-02-26T15:35:17.569Z,97701.40
2023-02-26T15:37:51.719Z,97708.59
2023-02-26T15:40:22.848Z,97721.91
2023-02-26T15:42:56.258Z,97731.70
2023-02-26T15:45:37.729Z,97739.36
2023-02-26T15:48:16.922Z,97751.05
2023-02-26T15:50:47.595Z,97760.92
2023-02-26T15:53:19.732Z,97763.76
2023-02-26T15:55:52.131Z,97768.80
2023-02-26T15:58:29.834Z,97773.39
2023-02-26T16:01:02.989Z,97777.77
2023-02-26T16:03:35.771Z,97777.94
2023-02-26T16:06:07.078Z,97768.95
2023-02-26T16:08:39.625Z,97768.52
2023-02-26T16:11:08.821Z,97773.13
2023-02-26T16:13:39.045Z,97783.97
2023-02-26T16:16:13.097Z,97790.43
2023-02-26T16:18:42.794Z,97800.42
2023-02-26T16:21:31.619Z,97810.98
2023-02-26T16:24:00.821Z,97815.14
2023-02-26T16:26:34.955Z,97822.55
2023-02-26T16:29:07.708Z,97833.92
2023-02-26T16:31:38.400Z,97835.59
2023-02-26T16:34:32.012Z,97838.16
2023-02-26T16:37:11.661Z,97841.90
2023-02-26T16:39:44.427Z,97843.73
2023-02-26T16:42:24.456Z,97841.76
2023-02-26T16:45:02.210Z,97836.04
2023-02-26T16:47:33.831Z,97840.78
2023-02-26T16:50:03.232Z,97841.42
2023-02-26T16:52:32.655Z,97845.88
2023-02-26T16:55:04.523Z,97847.11
2023-02-26T16:57:40.102Z,97847.78
2023-02-26T17:00:30.005Z,97844.87
2023-02-26T17:03:12.439Z,97852.44
2023-02-26T17:05:51.461Z,97860.83
2023-02-26T17:08:21.889Z,97873.44
2023-02-26T17:11:00.504Z,97869.72
2023-02-26T17:13:34.230Z,97854.02
2023-02-26T17:16:04.528Z,97829.78
2023-02-26T17:18:34.540Z,97817.30
2023-02-26T17:21:07.228Z,97802.86
2023-02-26T17:23:37.972Z,97800.05
2023-02-26T17:26:07.257Z,97800.89
2023-02-26T17:28:40.091Z,97797.77
2023-02-26T17:31:09.953Z,97796.92
2023-02-26T17:33:41.309Z,97795.50
2023-02-26T17:36:14.926Z,97797.28
2023-02-26T17:38:47.287Z,97803.10
2023-02-26T17:41:19.448Z,97805.58
2023-02-26T17:43:49.047Z,97793.61
2023-02-26T17:46:17.844Z,97788.64
2023-02-26T17:48:47.954Z,97794.02
2023-02-26T17:51:17.677Z,97801.27
2023-02-26T17:53:47.098Z,97799.01
2023-02-26T17:56:21.713Z,97787.48
2023-02-26T17:58:52.023Z,97777.90
2023-02-26T18:01:21.577Z,97771.34
2023-02-26T18:03:54.901Z,97768.98
2023-02-26T18:06:24.953Z,97769.98
2023-02-26T18:08:54.650Z,97772.93
2023-02-26T18:11:26.316Z,97768.14
2023-02-26T18:13:55.912Z,97753.88
2023-02-26T18:16:33.642Z,97737.73
2023-02-26T18:19:03.029Z,97742.67
2023-02-26T18:21:33.464Z,97751.73
2023-02-26T18:24:02.639Z,97759.41
2023-02-26T18:26:32.607Z,97774.86
2023-02-26T18:29:02.384Z,97783.27
2023-02-26T18:31:35.642Z,97781.52
2023-02-26T18:34:06.632Z,97782.93
2023-02-26T18:36:38.303Z,97786.12
2023-02-26T18:39:20.657Z,97775.50
2023-02-26T18:41:51.081Z,97781.95
2023-02-26T18:44:19.983Z,97776.83
2023-02-26T18:46:49.319Z,97785.45
2023-02-26T18:49:19.801Z,97790.34
2023-02-26T18:51:48.914Z,97793.86
2023-02-26T18:54:18.508Z,97811.10
2023-02-26T18:56:47.605Z,97810.42
2023-02-26T18:59:16.998Z,97815.61
2023-02-26T19:01:48.392Z,97820.16
2023-02-26T19:04:18.183Z,97828.95
2023-02-26T19:06:50.977Z,97826.09
2023-02-26T19:09:20.036Z,97825.04
2023-02-26T19:11:49.034Z,97818.11
2023-02-26T19:14:19.050Z,97814.67
2023-02-26T19:16:48.453Z,97812.30
2023-02-26T19:19:19.490Z,97805.67
2023-02-26T19:21:48.992Z,97807.80
2023-02-26T19:24:18.398Z,97805.98
2023-02-26T19:26:47.318Z,97806.79
2023-02-26T19:29:17.527Z,97805.40
2023-02-26T19:31:46.937Z,97811.47
2023-02-26T19:34:15.807Z,97811.94
2023-02-26T19:36:48.560Z,97822.91
2023-02-26T19:39:18.890Z,97820.48
2023-02-26T19:41:49.569Z,97811.21
2023-02-26T19:44:18.738Z,97807.94
2023-02-26T19:46:48.546Z,97806.59
2023-02-26T19:49:17.964Z,97802.38
2023-02-26T19:51:46.965Z,97792.78
2023-02-26T19:54:15.937Z,97792.13
2023-02-26T19:56:44.826Z,97795.98
2023-02-26T19:59:13.414Z,97805.15
2023-02-26T20:01:44.062Z,97810.20
2023-02-26T20:04:14.073Z,97804.03
2023-02-26T20:06:44.078Z,97800.33
2023-02-26T20:09:18.697Z,97805.06
2023-02-26T20:11:47.695Z,97816.94
2023-02-26T20:14:17.024Z,97828.25
2023-02-26T20:16:47.226Z,97834.73
2023-02-26T20:19:16.120Z,97845.66
2023-02-26T20:21:47.045Z,97858.02
2023-02-26T20:24:16.367Z,97879.30
2023-02-26T20:26:45.866Z,97879.88
2023-02-26T20:29:18.752Z,97874.30
2023-02-26T20:31:50.261Z,97869.33
2023-02-26T20:34:19.597Z,97856.83
2023-02-26T20:36:51.025Z,97859.33
2023-02-26T20:39:21.454Z,97870.98
2023-02-26T20:41:51.186Z,97878.00
2023-02-26T20:44:20.264Z,97881.39
2023-02-26T20:46:49.692Z,97889.41
2023-02-26T20:49:18.557Z,97892.11
2023-02-26T20:51:50.732Z,97906.55
2023-02-26T20:54:20.648Z,97907.70
2023-02-26T20:56:50.675Z,97916.90
2023-02-26T20:59:20.255Z,97918.77
2023-02-26T21:01:54.169Z,97912.95
2023-02-26T21:04:23.363Z,97910.38
2023-02-26T21:06:52.351Z,97914.16
2023-02-26T21:09:21.500Z,97924.44
2023-02-26T21:11:52.631Z,97936.63
2023-02-26T21:14:22.610Z,97943.16
2023-02-26T21:16:54.262Z,97945.64
2023-02-26T21:19:24.195Z,97939.94
2023-02-26T21:21:53.277Z,97937.39
2023-02-26T21:24:23.186Z,97947.61
2023-02-26T21:26:53.202Z,97961.03
2023-02-26T21:29:23.172Z,97963.69
2023-02-26T21:31:54.007Z,97958.84
2023-02-26T21:34:33.587Z,97951.89
2023-02-26T21:37:03.932Z,97960.27
2023-02-26T21:39:33.134Z,97961.52
2023-02-26T21:42:04.078Z,97968.05
2023-02-26T21:44:35.732Z,97976.73
2023-02-26T21:47:04.809Z,97981.17
2023-02-26T21:49:33.610Z,97978.84
2023-02-26T21:52:11.405Z,97982.51
2023-02-26T21:54:44.058Z,97984.23
2023-02-26T21:57:13.065Z,97986.79
2023-02-26T21:59:42.259Z,97991.63
2023-02-26T22:02:12.017Z,97988.16
2023-02-26T22:04:42.394Z,97982.36
2023-02-26T22:07:11.799Z,97981.46
2023-02-26T22:09:40.405Z,97981.17
2023-02-26T22:12:08.889Z,97984.30
2023-02-26T22:14:37.645Z,97987.98
2023-02-26T22:17:06.561Z,97991.06
2023-02-26T22:19:37.177Z,97991.52
2023-02-26T22:22:05.782Z,97985.63
2023-02-26T22:24:35.358Z,97982.32
2023-02-26T22:27:05.477Z,97979.86
2023-02-26T22:29:34.382Z,97977.92
2023-02-26T22:32:03.155Z,97977.08
2023-02-26T22:34:34.196Z,97968.94
2023-02-26T22:37:02.786Z,97969.42
2023-02-26T22:39:31.474Z,97976.03
2023-02-26T22:42:20.039Z,97977.52
2023-02-26T22:44:48.810Z,97987.08
2023-02-26T22:47:17.818Z,97997.27
2023-02-26T22:49:46.797Z,97996.59
2023-02-26T22:52:17.733Z,97996.79
2023-02-26T22:54:48.081Z,97998.11
2023-02-26T22:57:16.947Z,98003.29
2023-02-26T22:59:45.736Z,98002.31
2023-02-26T23:02:14.733Z,98008.92
2023-02-26T23:04:44.494Z,98011.13
2023-02-26T23:07:13.227Z,98014.36
2023-02-26T23:09:42.550Z,98022.70
2023-02-26T23:12:11.453Z,98027.66
2023-02-26T23:14:40.629Z,98033.47
2023-02-26T23:17:11.498Z,98035.77
2023-02-26T23:19:41.568Z,98036.36
2023-02-26T23:22:10.561Z,98024.88
2023-02-26T23:24:40.820Z,98029.55
2023-02-26T23:27:09.572Z,98031.37
2023-02-26T23:29:45.859Z,98038.67
2023-02-26T23:32:15.547Z,98044.70
2023-02-26T23:34:45.050Z,98050.19
2023-02-26T23:37:14.244Z,98029.95
2023-02-26T23:39:42.935Z,98031.76
2023-02-26T23:42:12.065Z,98044.14
2023-02-26T23:44:41.117Z,98048.81
2023-02-26T23:47:09.803Z,98052.48
2023-02-26T23:49:40.225Z,98049.61
2023-02-26T23:52:09.637Z,98052.14
2023-02-26T23:54:40.070Z,98051.45
2023-02-26T23:57:09.399Z,98042.65
2023-02-26T23:59:39.910Z,98041.23
